Time;durP1;ratioP1;P1;durP2;ratioP2;P2;SDS_P1;SDS_P2;PMS_P1;PMS_P2;Temp;Humidity;BMP_temperature;BMP_pressure;BME280_temperature;BME280_humidity;BME280_pressure;Samples;Min_cycle;Max_cycle;Signal;HPM_P1;HPM_P2
2024/02/06 00:02:51;;;;;;;;;;;;;;;8.82;97.26;98429.81;272364;1265;22712;-91
2024/02/06 00:08:58;;;;;;;;;;;;;;;8.82;97.09;98428.96;272856;1265;22456;-92
2024/02/06 00:15:12;;;;;;;;;;;;;;;8.81;96.75;98421.86;271835;1265;22477;-93
2024/02/06 00:21:16;;;;;;;;;;;;;;;8.81;96.46;98421.94;272168;1266;22628;-91
2024/02/06 00:27:29;;;;;;;;;;;;;;;8.81;96.35;98423.88;272614;1265;24360;-92
2024/02/06 00:34:05;;;;;;;;;;;;;;;8.86;95.91;98425.17;270522;1262;22540;-91
2024/02/06 00:40:08;;;;;;;;;;;;;;;8.87;95.61;98424.72;272471;1265;26847;-94
2024/02/06 00:46:11;;;;;;;;;;;;;;;8.87;95.59;98429.24;271664;1265;23715;-92
2024/02/06 00:52:14;;;;;;;;;;;;;;;8.86;95.05;98428.85;270762;1265;22537;-90
2024/02/06 00:58:23;;;;;;;;;;;;;;;8.83;95.05;98424.45;271289;1265;22520;-93
2024/02/06 01:04:25;;;;;;;;;;;;;;;8.76;94.67;98422.83;272208;1265;22490;-92
2024/02/06 01:10:36;;;;;;;;;;;;;;;;;;;;;
2024/02/06 01:16:39;;;;;;;;;;;;;;;8.69;93.45;98422.05;271011;1265;22622;-92
2024/02/06 01:22:40;;;;;;;;;;;;;;;8.59;93.26;98415.56;272253;1266;22443;-90
2024/02/06 01:29:02;;;;;;;;;;;;;;;8.49;93.01;98417.56;271267;1265;22862;-93
2024/02/06 01:35:12;;;;;;;;;;;;;;;8.36;92.81;98416.89;271518;1265;22584;-91
2024/02/06 01:41:23;;;;;;;;;;;;;;;8.26;92.69;98408.30;271085;1265;22521;-94
2024/02/06 01:47:24;;;;;;;;;;;;;;;8.17;92.89;98397.27;271308;1265;23011;-93
2024/02/06 01:53:25;;;;;;;;;;;;;;;8.13;93.02;98389.27;270379;1265;24221;-91
2024/02/06 01:59:27;;;;;;;;;;;;;;;8.05;93.02;98389.95;273397;1265;22471;-93
2024/02/06 02:05:49;;;;;;;;;;;;;;;;;;;;;
2024/02/06 02:11:59;;;;;;;;;;;;;;;7.92;93.04;98387.94;271044;1265;22543;-94
2024/02/06 02:18:00;;;;;;;;;;;;;;;7.94;92.69;98382.12;272829;1266;22564;-92
2024/02/06 02:24:03;;;;;;;;;;;;;;;7.98;92.60;98378.91;273257;1266;22606;-94
2024/02/06 02:36:36;;;;;;;;;;;;;;;7.92;92.58;98379.60;267134;1265;22537;-92
2024/02/06 02:42:40;;;;;;;;;;;;;;;7.92;92.29;98379.05;269716;1269;22600;-93
2024/02/06 02:48:44;;;;;;;;;;;;;;;7.87;92.04;98386.33;269905;1269;22586;-94
2024/02/06 02:54:49;;;;;;;;;;;;;;;7.77;92.26;98386.59;269800;1269;22534;-92
2024/02/06 03:00:54;;;;;;;;;;;;;;;7.71;92.11;98380.61;269771;1269;23625;-93
2024/02/06 03:06:59;;;;;;;;;;;;;;;7.68;91.91;98376.52;269929;1269;22557;-94
2024/02/06 03:13:22;;;;;;;;;;;;;;;7.58;91.93;98369.92;269909;1260;24398;-94
2024/02/06 03:19:30;;;;;;;;;;;;;;;7.48;91.98;98370.35;269954;1269;22528;-94
2024/02/06 03:25:34;;;;;;;;;;;;;;;7.38;92.11;98367.10;270114;1269;22535;-93
2024/02/06 03:31:44;;;;;;;;;;;;;;;7.29;92.05;98364.56;269781;1269;22574;-93
2024/02/06 03:38:01;;;;;;;;;;;;;;;7.22;92.07;98371.39;269962;1270;24220;-93
2024/02/06 03:44:20;;;;;;;;;;;;;;;7.16;92.09;98368.71;269943;1270;23713;-93
2024/02/06 03:50:26;;;;;;;;;;;;;;;7.10;92.01;98367.86;269757;1269;23864;-94
2024/02/06 03:56:31;;;;;;;;;;;;;;;7.02;92.05;98370.54;269638;1269;23215;-93
2024/02/06 04:02:35;;;;;;;;;;;;;;;6.94;92.21;98369.55;269830;1269;25141;-92
2024/02/06 04:08:56;;;;;;;;;;;;;;;6.86;92.27;98368.80;269773;1267;22534;-94
2024/02/06 04:15:15;;;;;;;;;;;;;;;6.81;92.43;98371.84;270067;1269;22566;-92
2024/02/06 04:21:18;;;;;;;;;;;;;;;6.75;92.50;98369.89;269865;1269;25316;-93
2024/02/06 04:27:21;;;;;;;;;;;;;;;6.73;92.58;98373.58;269833;1269;23457;-94
2024/02/06 04:33:27;;;;;;;;;;;;;;;6.66;92.65;98373.92;269719;1269;22496;-92
2024/02/06 04:39:35;;;;;;;;;;;;;;;6.56;92.87;98373.30;272968;1269;23422;-93
2024/02/06 04:45:38;;;;;;;;;;;;;;;6.49;93.20;98381.71;273035;1269;22557;-92
2024/02/06 04:51:53;;;;;;;;;;;;;;;6.42;93.29;98384.48;272819;1269;22523;-92
2024/02/06 04:57:57;;;;;;;;;;;;;;;6.44;93.32;98381.02;272813;1257;22479;-93
2024/02/06 05:04:02;;;;;;;;;;;;;;;6.44;93.40;98369.83;272825;1257;25040;-93
2024/02/06 05:10:23;;;;;;;;;;;;;;;6.36;93.58;98368.85;271321;1269;23392;-91
2024/02/06 05:16:28;;;;;;;;;;;;;;;6.29;93.94;98372.30;269696;1269;23366;-92
2024/02/06 05:22:49;;;;;;;;;;;;;;;6.23;93.85;98373.73;269970;1269;23186;-92
2024/02/06 05:29:08;;;;;;;;;;;;;;;6.20;94.02;98378.19;269640;1269;22502;-92
2024/02/06 05:35:24;;;;;;;;;;;;;;;6.16;94.19;98377.73;269696;1269;23266;-92
2024/02/06 07:34:14;;;;;;;9.40;3.30;;;;;;;7.45;92.79;98426.79;262937;1305;545049;-91
2024/02/06 07:40:23;;;;;;;13.10;4.10;;;;;;;7.45;92.42;98430.05;270203;1273;22549;-92
2024/02/06 07:46:30;;;;;;;9.50;3.50;;;;;;;7.44;92.32;98432.99;269515;1270;3759223;-92
2024/02/06 07:52:42;;;;;;;13.40;4.10;;;;;;;7.46;91.98;98442.21;271078;1270;22516;-91
2024/02/06 07:58:48;;;;;;;9.10;3.10;;;;;;;7.47;92.11;98450.23;270265;1270;22550;-91
2024/02/06 08:04:54;;;;;;;9.90;3.70;;;;;;;7.47;92.10;98456.23;270916;1266;22571;-90
2024/02/06 08:11:01;;;;;;;14.00;3.90;;;;;;;7.47;91.89;98453.20;271051;1267;22520;-93
2024/02/06 08:17:07;;;;;;;14.50;5.00;;;;;;;7.46;92.38;98449.06;271132;1267;25217;-91
2024/02/06 08:23:18;;;;;;;15.40;4.30;;;;;;;7.43;92.36;98452.59;272261;1267;22799;-91
2024/02/06 08:29:24;;;;;;;12.60;4.40;;;;;;;7.43;92.08;98449.70;271387;1263;22558;-91
2024/02/06 08:35:32;;;;;;;10.90;3.70;;;;;;;7.47;91.75;98453.12;271189;1267;24243;-92
2024/02/06 08:41:38;;;;;;;;;;;;;;;7.52;91.55;98456.30;270834;1267;23052;-91
2024/02/06 08:47:42;;;;;;;9.20;3.70;;;;;;;7.54;91.31;98455.09;270555;1267;22517;-91
2024/02/06 08:53:48;;;;;;;9.40;3.40;;;;;;;7.55;90.99;98454.55;270334;1266;24216;-93
2024/02/06 08:59:56;;;;;;;7.30;2.60;;;;;;;7.56;90.76;98458.70;270493;1264;22645;-92
2024/02/06 09:05:59;;;;;;;9.70;3.20;;;;;;;7.60;90.74;98457.27;270480;1267;22576;-91
2024/02/06 09:12:10;;;;;;;15.80;3.90;;;;;;;7.68;90.37;98455.90;271070;1267;22531;-90
2024/02/06 09:18:16;;;;;;;8.70;3.80;;;;;;;7.76;90.19;98463.50;270907;1267;22558;-92
2024/02/06 09:24:21;;;;;;;12.40;4.20;;;;;;;7.84;89.67;98462.91;270797;1267;25310;-92
2024/02/06 09:30:30;;;;;;;9.80;3.10;;;;;;;7.92;89.69;98465.42;271116;1267;24503;-91
2024/02/06 09:36:43;;;;;;;9.30;3.70;;;;;;;7.99;89.51;98469.55;271208;1267;22525;-91
2024/02/06 09:42:46;;;;;;;10.90;5.30;;;;;;;8.08;89.22;98466.40;271233;1267;23652;-91
2024/02/06 09:48:50;;;;;;;13.70;5.70;;;;;;;8.21;88.99;98471.17;270923;1267;22539;-90
2024/02/06 09:54:57;;;;;;;12.90;5.20;;;;;;;8.31;88.40;98482.67;271332;1267;22543;-92
2024/02/06 10:01:04;;;;;;;13.40;4.60;;;;;;;8.40;88.68;98478.72;272998;1267;23322;-91
2024/02/06 10:07:14;;;;;;;15.10;4.20;;;;;;;8.52;88.41;98465.45;273201;1267;23594;-91
2024/02/06 10:13:19;;;;;;;14.20;4.50;;;;;;;8.77;87.39;98461.58;273187;1267;23035;-91
2024/02/06 10:19:46;;;;;;;17.90;5.60;;;;;;;9.32;87.32;98466.96;273120;1267;22370;-92
2024/02/06 10:26:02;;;;;;;15.40;4.80;;;;;;;9.94;86.95;98459.17;273123;1267;22233;-91
2024/02/06 10:32:15;;;;;;;8.80;3.60;;;;;;;10.25;85.33;98451.05;273123;1267;22249;-91
2024/02/06 10:38:18;;;;;;;11.30;3.80;;;;;;;10.30;83.53;98443.80;273222;1267;23598;-92
2024/02/06 10:44:30;;;;;;;16.20;4.00;;;;;;;10.12;83.12;98444.51;273222;1267;22212;-91
2024/02/06 10:50:33;;;;;;;17.60;4.40;;;;;;;10.09;82.85;98443.48;273330;1266;22421;-92
2024/02/06 10:56:37;;;;;;;16.60;3.70;;;;;;;10.06;81.64;98441.50;273250;1267;22486;-93
2024/02/06 11:02:51;;;;;;;9.20;3.30;;;;;;;10.00;81.60;98430.98;273309;1267;22448;-91
2024/02/06 11:09:17;;;;;;;12.10;4.40;;;;;;;9.95;81.24;98430.58;273155;1267;22399;-93
2024/02/06 11:15:24;;;;;;;17.40;5.10;;;;;;;9.83;81.23;98418.98;273176;1267;22332;-91
2024/02/06 11:21:26;;;;;;;9.70;3.50;;;;;;;9.69;81.33;98412.33;273258;1267;22578;-91
2024/02/06 11:27:55;;;;;;;9.40;3.80;;;;;;;9.57;80.72;98404.38;273254;1267;22292;-93
2024/02/06 11:34:18;;;;;;;8.40;3.70;;;;;;;9.55;81.05;98397.27;273151;1267;22429;-91
2024/02/06 11:40:34;;;;;;;9.10;4.10;;;;;;;9.47;81.17;98389.73;273216;1267;22301;-92
2024/02/06 11:47:01;;;;;;;7.60;4.00;;;;;;;9.41;80.55;98395.30;273117;1267;22528;-91
2024/02/06 11:53:17;;;;;;;10.80;3.50;;;;;;;9.39;80.87;98399.28;273283;1266;22346;-93
2024/02/06 11:59:34;;;;;;;10.40;3.70;;;;;;;9.36;81.00;98401.92;272391;1267;22571;-91
2024/02/06 12:05:43;;;;;;;8.10;3.00;;;;;;;9.39;80.37;98391.48;270813;1267;22708;-92
2024/02/06 12:11:47;;;;;;;10.80;3.80;;;;;;;9.42;80.05;98386.58;270938;1267;22588;-93
2024/02/06 12:17:51;;;;;;;12.80;3.40;;;;;;;9.47;79.70;98373.57;270727;1267;22645;-91
2024/02/06 12:24:06;;;;;;;14.00;3.30;;;;;;;9.48;79.29;98360.38;270931;1267;23261;-92
2024/02/06 12:30:29;;;;;;;9.10;4.00;;;;;;;9.57;80.05;98354.41;270833;1267;23750;-92
2024/02/06 12:36:42;;;;;;;11.30;3.40;;;;;;;9.62;79.44;98357.72;271048;1268;22809;-92
2024/02/06 12:43:06;;;;;;;10.80;4.40;;;;;;;9.50;78.82;98356.26;271144;1267;22628;-92
2024/02/06 12:49:10;;;;;;;11.40;4.80;;;;;;;9.39;79.29;98357.98;271516;1255;23291;-91
2024/02/06 12:55:21;;;;;;;11.10;5.10;;;;;;;9.31;79.42;98356.77;271276;1267;22542;-92
2024/02/06 13:01:27;;;;;;;14.50;4.60;;;;;;;9.24;79.02;98353.08;271543;1266;22587;-92
2024/02/06 13:07:32;;;;;;;10.50;4.50;;;;;;;9.15;79.15;98349.35;271694;1263;22521;-92
2024/02/06 13:13:43;;;;;;;11.60;4.10;;;;;;;9.09;79.00;98351.64;271825;1266;24250;-93
2024/02/06 13:20:10;;;;;;;12.30;4.70;;;;;;;9.01;79.19;98351.82;271584;1266;22542;-90
2024/02/06 13:26:16;;;;;;;14.50;4.80;;;;;;;8.93;79.23;98355.73;270888;1266;22526;-90
2024/02/06 13:32:24;;;;;;;11.80;5.00;;;;;;;8.84;78.73;98354.73;271159;1267;22680;-91
2024/02/06 13:38:33;;;;;;;12.70;4.80;;;;;;;8.78;79.05;98362.17;271083;1266;24280;-92
2024/02/06 13:44:39;;;;;;;14.80;5.00;;;;;;;8.72;79.72;98357.14;271044;1266;23004;-92
2024/02/06 13:50:54;;;;;;;;;;;;;;;8.66;79.79;98351.55;271099;1266;22539;-92
2024/02/06 13:56:58;;;;;;;14.00;5.50;;;;;;;8.60;79.68;98344.65;270888;1266;23325;-92
2024/02/06 14:03:05;;;;;;;14.20;5.10;;;;;;;8.52;80.07;98340.59;270656;1266;22740;-92
2024/02/06 14:09:12;;;;;;;15.10;5.30;;;;;;;8.46;80.26;98344.29;270398;1266;22550;-92
2024/02/06 14:15:18;;;;;;;16.60;5.90;;;;;;;8.41;80.23;98341.52;270266;1266;23486;-91
2024/02/06 14:21:31;;;;;;;14.10;5.90;;;;;;;8.38;80.16;98334.73;270457;1267;22259;-91
2024/02/06 14:27:39;;;;;;;20.40;6.20;;;;;;;8.35;80.08;98334.92;271441;1267;22678;-91
2024/02/06 14:33:44;;;;;;;12.30;6.30;;;;;;;8.33;80.11;98328.11;270194;1266;22534;-92
2024/02/06 14:39:53;;;;;;;17.30;7.30;;;;;;;8.30;80.54;98327.39;269730;1266;22526;-92
2024/02/06 14:45:59;;;;;;;19.70;7.70;;;;;;;8.25;80.48;98327.48;272726;1266;22543;-93
2024/02/06 14:52:07;;;;;;;14.20;4.80;;;;;;;8.24;80.21;98316.65;269935;1266;23119;-92
2024/02/06 14:58:10;;;;;;;14.80;5.40;;;;;;;8.20;80.12;98309.65;270442;1266;22527;-91
2024/02/06 15:04:18;;;;;;;16.80;4.70;;;;;;;8.15;80.27;98304.85;270087;1266;23890;-92
2024/02/06 15:10:27;;;;;;;10.70;4.30;;;;;;;8.11;79.63;98297.02;270525;1268;23368;-92
2024/02/06 15:16:31;;;;;;;14.10;4.20;;;;;;;8.07;79.31;98294.02;270766;1266;22530;-92
2024/02/06 15:22:42;;;;;;;9.40;4.00;;;;;;;8.02;79.71;98292.98;271385;1268;24856;-92
2024/02/06 15:28:49;;;;;;;10.20;4.00;;;;;;;7.97;79.40;98285.92;271363;1268;25078;-91
2024/02/06 15:34:52;;;;;;;7.40;3.70;;;;;;;7.94;79.08;98278.09;271149;1265;22551;-92
2024/02/06 15:41:10;;;;;;;7.70;3.70;;;;;;;7.91;78.66;98280.33;271198;1267;22564;-92
2024/02/06 15:47:13;;;;;;;9.20;4.30;;;;;;;7.86;78.52;98280.45;270508;1266;23762;-93
2024/02/06 15:53:18;;;;;;;12.20;5.10;;;;;;;7.84;78.39;98284.85;270745;1266;23508;-93
2024/02/06 15:59:29;;;;;;;11.40;5.40;;;;;;;7.82;78.88;98288.02;270776;1266;23097;-92
2024/02/06 16:05:33;;;;;;;15.30;4.10;;;;;;;7.81;78.97;98292.75;272171;1267;25250;-92
2024/02/06 16:12:20;;;;;;;10.70;4.20;;;;;;;7.82;78.85;98292.52;270351;1266;25543;-92
2024/02/06 16:18:24;;;;;;;10.60;4.00;;;;;;;7.82;79.09;98287.39;270408;1266;22570;-92
2024/02/06 16:24:31;;;;;;;9.00;3.60;;;;;;;7.83;78.67;98290.52;270258;1266;23768;-93
2024/02/06 16:30:37;;;;;;;11.90;4.50;;;;;;;7.86;78.59;98287.29;270359;1269;22558;-92
2024/02/06 16:36:47;;;;;;;8.20;4.80;;;;;;;7.84;79.12;98289.21;270037;1266;22624;-93
2024/02/06 16:42:54;;;;;;;9.80;4.20;;;;;;;7.81;79.45;98289.09;270204;1266;23800;-92
2024/02/06 16:48:59;;;;;;;9.00;3.80;;;;;;;7.82;79.58;98291.52;269787;1266;24223;-92
2024/02/06 16:55:14;;;;;;;6.70;3.00;;;;;;;7.86;79.69;98297.25;269735;1253;24304;-92
2024/02/06 17:01:19;;;;;;;8.30;2.90;;;;;;;7.89;79.53;98301.17;269843;1255;22556;-93
2024/02/06 17:07:24;;;;;;;7.70;3.30;;;;;;;7.85;80.39;98298.71;270189;1266;22539;-92
2024/02/06 17:13:36;;;;;;;8.90;3.50;;;;;;;7.81;80.63;98291.81;270162;1266;22583;-91
2024/02/06 17:19:41;;;;;;;9.20;4.60;;;;;;;7.83;80.46;98294.80;270449;1266;22563;-93
2024/02/06 17:25:49;;;;;;;7.20;3.50;;;;;;;7.86;80.73;98292.34;270400;1266;23646;-92
2024/02/06 17:31:57;;;;;;;7.60;3.70;;;;;;;7.86;80.93;98291.72;270742;1266;22560;-92
2024/02/06 17:38:23;;;;;;;9.60;3.20;;;;;;;7.88;80.62;98279.21;270447;1267;22822;-93
2024/02/06 17:44:33;;;;;;;10.70;3.00;;;;;;;7.90;80.63;98265.44;270682;1267;22942;-93
2024/02/06 17:50:57;;;;;;;7.40;3.30;;;;;;;7.91;80.70;98269.66;270422;1251;23261;-93
2024/02/06 17:57:24;;;;;;;8.20;3.60;;;;;;;7.89;80.72;98267.54;255663;1269;20002619;-93
2024/02/06 18:03:35;;;;;;;6.70;3.00;;;;;;;7.90;80.78;98262.80;271128;1266;23681;-95
2024/02/06 18:09:43;;;;;;;9.00;3.60;;;;;;;7.93;80.70;98256.83;271344;1266;22524;-93
2024/02/06 18:15:49;;;;;;;7.20;2.80;;;;;;;7.94;80.93;98250.05;270992;1266;22644;-92
2024/02/06 18:22:07;;;;;;;7.70;2.90;;;;;;;7.94;80.67;98248.20;271244;1267;22567;-91
2024/02/06 18:28:26;;;;;;;7.10;3.50;;;;;;;7.97;80.59;98250.17;271443;1268;22635;-93
2024/02/06 18:34:30;;;;;;;7.80;3.20;;;;;;;7.97;80.78;98243.71;271359;1259;22645;-93
2024/02/06 18:40:39;;;;;;;9.10;3.50;;;;;;;7.96;80.67;98235.84;271180;1266;22972;-94
2024/02/06 18:46:44;;;;;;;11.60;2.90;;;;;;;7.99;80.23;98210.24;271006;1267;22540;-93
2024/02/06 18:52:52;;;;;;;8.00;2.50;;;;;;;7.99;80.58;98204.33;271104;1267;22570;-92
2024/02/06 18:59:02;;;;;;;6.30;2.40;;;;;;;7.98;80.56;98204.02;271144;1272;22710;-93
2024/02/06 19:05:08;;;;;;;7.30;3.10;;;;;;;7.98;80.65;98201.68;271115;1266;23358;-93
2024/02/06 19:11:15;;;;;;;10.10;2.70;;;;;;;8.03;80.37;98205.92;271262;1267;22711;-93
2024/02/06 19:17:27;;;;;;;8.00;3.60;;;;;;;8.09;80.46;98201.99;271191;1266;22548;-92
2024/02/06 19:23:44;;;;;;;6.30;3.10;;;;;;;8.11;80.67;98197.95;271293;1266;22555;-91
2024/02/06 19:29:55;;;;;;;6.20;2.90;;;;;;;8.12;80.58;98190.18;271388;1266;23073;-92
2024/02/06 19:36:02;;;;;;;8.40;3.30;;;;;;;8.08;80.86;98188.90;273193;1267;22549;-93
2024/02/06 19:42:16;;;;;;;8.00;3.00;;;;;;;8.06;81.08;98179.45;273204;1268;22434;-92
2024/02/06 19:48:24;;;;;;;5.80;3.00;;;;;;;8.07;81.19;98173.92;269297;1268;5103297;-93
2024/02/06 19:54:31;;;;;;;9.20;3.70;;;;;;;8.11;81.05;98172.02;273140;1266;22487;-92
2024/02/06 20:00:41;;;;;;;8.30;3.10;;;;;;;8.15;80.99;98164.81;273281;1266;22272;-92
2024/02/06 20:06:49;;;;;;;8.90;3.70;;;;;;;8.21;81.09;98156.61;273351;1268;22451;-92
2024/02/06 20:12:54;;;;;;;9.30;3.00;;;;;;;8.17;81.49;98150.10;273271;1267;22719;-93
2024/02/06 20:18:58;;;;;;;8.00;2.90;;;;;;;8.16;81.42;98146.44;273224;1268;22459;-92
2024/02/06 20:25:04;;;;;;;7.40;2.50;;;;;;;8.22;81.32;98132.64;273262;1267;22425;-92
2024/02/06 20:31:21;;;;;;;9.50;3.30;;;;;;;8.24;81.51;98125.41;273232;1266;23462;-91
2024/02/06 20:37:32;;;;;;;5.20;2.50;;;;;;;8.29;81.32;98118.04;273380;1269;22491;-92
2024/02/06 20:43:36;;;;;;;5.60;2.20;;;;;;;8.35;80.94;98107.55;273299;1267;23387;-92
2024/02/06 20:49:46;;;;;;;4.70;2.40;;;;;;;8.40;81.06;98107.74;273171;1267;22524;-91
2024/02/06 20:55:53;;;;;;;3.70;1.90;;;;;;;8.42;80.82;98105.65;273297;1261;23493;-92
2024/02/06 21:02:00;;;;;;;6.60;3.30;;;;;;;8.44;80.81;98098.57;272767;1266;22575;-93
2024/02/06 21:08:17;;;;;;;4.70;1.80;;;;;;;8.48;80.63;98090.48;273246;1268;22481;-93
2024/02/06 21:14:30;;;;;;;7.20;2.10;;;;;;;8.49;80.77;98077.31;273258;1266;23059;-93
2024/02/06 21:20:39;;;;;;;7.00;2.60;;;;;;;8.47;80.75;98075.05;273296;1266;22280;-92
2024/02/06 21:26:44;;;;;;;4.90;2.00;;;;;;;8.49;80.61;98077.24;272859;1267;22546;-92
2024/02/06 21:32:54;;;;;;;5.80;2.20;;;;;;;8.53;80.43;98078.12;271270;1267;22611;-93
2024/02/06 21:38:59;;;;;;;3.40;2.30;;;;;;;8.58;80.26;98067.70;270947;1267;22532;-94
2024/02/06 21:45:04;;;;;;;5.90;2.50;;;;;;;8.60;80.33;98057.48;270298;1267;22502;-92
2024/02/06 21:51:14;;;;;;;6.30;2.50;;;;;;;8.63;79.80;98059.36;270504;1267;24474;-94
2024/02/06 21:57:24;;;;;;;8.90;2.60;;;;;;;8.67;79.88;98055.48;270620;1267;25402;-93
2024/02/06 22:03:43;;;;;;;7.40;2.30;;;;;;;8.69;80.00;98056.35;270845;1266;22607;-94
2024/02/06 22:09:47;;;;;;;10.60;3.40;;;;;;;8.69;80.00;98042.25;270696;1267;22681;-93
2024/02/06 22:15:51;;;;;;;13.80;4.20;;;;;;;8.76;79.39;98038.20;270705;1267;22556;-93
2024/02/06 22:21:57;;;;;;;4.70;2.40;;;;;;;8.84;79.07;98040.11;273235;1267;22580;-94
2024/02/06 22:28:10;;;;;;;8.20;2.20;;;;;;;8.89;79.18;98042.70;273304;1267;23688;-91
2024/02/06 22:34:23;;;;;;;8.70;2.70;;;;;;;8.92;78.56;98034.28;273298;1267;22414;-90
2024/02/06 22:40:28;;;;;;;6.90;2.70;;;;;;;8.97;78.19;98018.77;273338;1267;22241;-90
2024/02/06 22:46:33;;;;;;;9.80;3.30;;;;;;;8.95;78.41;98011.29;273333;1267;22414;-90
2024/02/06 22:52:35;;;;;;;7.80;2.80;;;;;;;8.94;78.24;97996.85;273382;1267;22422;-91
2024/02/06 22:58:41;;;;;;;9.40;2.90;;;;;;;8.94;78.02;97982.27;273385;1267;22242;-92
2024/02/06 23:04:46;;;;;;;8.80;2.50;;;;;;;8.98;77.81;97983.60;273347;1267;22203;-90
2024/02/06 23:10:52;;;;;;;7.20;2.70;;;;;;;9.02;77.38;97982.36;273368;1267;22411;-91
2024/02/06 23:17:02;;;;;;;8.80;1.90;;;;;;;9.05;77.00;97969.20;273416;1266;22267;-93
2024/02/06 23:23:19;;;;;;;5.40;1.80;;;;;;;9.09;76.85;97970.98;273192;1266;22238;-92
2024/02/06 23:29:25;;;;;;;6.60;2.00;;;;;;;9.12;76.60;97969.02;273327;1267;22418;-93
2024/02/06 23:35:34;;;;;;;5.10;1.80;;;;;;;9.13;76.23;97965.20;273340;1266;22388;-91
2024/02/06 23:41:38;;;;;;;6.50;2.10;;;;;;;9.16;76.24;97954.84;273323;1267;22381;-92
2024/02/06 23:47:43;;;;;;;7.10;2.00;;;;;;;9.13;76.52;97946.10;273356;1266;22251;-92
2024/02/06 23:53:49;;;;;;;6.10;2.10;;;;;;;9.14;76.49;97941.80;273332;1266;22539;-92
